Pembroke, NC

7:50 PM EST on March 06, 2015 (GMT -0500)
Lumberton Municipal | Change Station
CLOSE
Current Station
Airport
Location: Lumberton,
Elevation: 125 ft
Nearby Weather Stations
Active Advisory: Flood Warning

Elev 125 ft 34.61 °N, 79.06 °W | Updated 56 minutes ago

Clear
Clear
38 °F
Feels Like 34 °F
N
5
Wind Variable Wind from NE

Today
High -- | Low -- °F
--% Chance of Precip.
Yesterday
High -- | Low -- °F
Precip. -- in
6:39 AM 6:16 PM
Full, 99% visible
Pressure 30.42 in
Visibility 10.0 miles
Clouds Clear
Windchill 34 °F
Dew Point 19 °F
Humidity 47%
Rainfall 0.00 in
Snow Depth Not available.
UV 0 out of 12
Pollen 6.90 out of 12
Air Quality Not available.
Flu Activity Not available.
METAR KLBT 062354Z AUTO 05004KT 10SM CLR 03/M07 A3042 RMK AO2 SLP300 T00331072 10067 20033 53007

More Conditions Fewer Conditions

Pressure 30.42 in
Visibility 10.0 miles
Clouds Clear
Windchill 34 °F
Dew Point 19 °F
Humidity 47%
Rainfall 0.00 in
Snow Depth Not available.
UV 0 out of 12
Pollen 6.90 out of 12
Air Quality Not available.
Flu Activity Not available.
METAR KLBT 062354Z AUTO 05004KT 10SM CLR 03/M07 A3042 RMK AO2 SLP300 T00331072 10067 20033 53007

More Conditions Fewer Conditions

10-Day Weather Forecast

Almanac

Astronomy

Mar. 06, 2015 Rise Set
Actual Time
Civil Twilight
Nautical Twilight
Astronomical Twilight
Moon
Length of Visible Light
Length of Day
Tomorrow will be .
, % of the Moon is Illuminated

Today's Extremes

State Highs State Lows

Community

WunderPhotos

Upload Photos

1,803,469 photos uploaded!

WunderBlogs® & News

Nearby

Air Quality

  Air Quality AQ Index Pollutant
Not available.

Snow Depth

Station Depth Elevation

Earthquake Activity

City Distance Mag. Time & Date
Minimum magnitude displayed is 2.5.

Coastal Water Temperatures

Place Temperature

Nearby Weather Stations

Flood Warning
Statement as of 9:50 AM EST on March 06, 2015

... Flood Warning now in effect until Tuesday afternoon...
the Flood Warning continues for
the lumber near Lumberton.
* Until Tuesday afternoon.
* At 7:00 am Friday the stage was 13.7 feet.
* Flood stage is 13.0 feet.
* Minor flooding is occurring and minor flooding is forecast.
* Forecast... the river will continue rising to near 13.9 feet by tomorrow
morning. The river will fall below flood stage early Tuesday morning.
* Impact... at 13.0 feet... low land flooding will occur along the river. The flood
waters may affect some residential property as water backs up into the
drainage ditches in the city.


Lat... Lon 3467 7916 3468 7904 3457 7891 3452 7899
          3461 7907 3458 7915